Sam Robinson

Recruteur en chef - Austin FC
23 Avr 2028
Dimanche
Processus

Personnalité

Adaptabilité (11) Ambition (17) Controverse (20) Loyauté (1) Pression (19) Professionnalisme (8) Sportivité (9) Tempérament (6)

Profil

Style d'entraînement Démocratique
Diplôme Continental B
Détermination 4
Gestion des joueurs 9
Motivation 4
Discipline 10
Satisfaction professionnelle
100%
Fatigue
0%
Rôle Recruteur en chef
Salaire 38.1K p/s
Contrat 14.03.2030

Performance

Comportement Bon
Efficacité de l'entraînement
45%
Développement des joueurs
60%
Prévention des blessures
60%
Mise en place tactique
25%

Événements récents

A participé à une réunion de recrutement maintenant
A participé à une réunion de recrutement maintenant
A participé à une réunion de recrutement 7j
A participé à une réunion de recrutement 7j
A recommandé une cible de transfert 7j
A recommandé une cible de transfert 7j
A recommandé une cible de transfert 14j
A recommandé une cible de transfert 14j

Suivi en cours

170
Joueur Club Statut Capacité Confiance Observé Dernière observation Dernier vote
Chris Rigg Sunderland Actif 144 / 141 40% 5 22.02.2028 -
Jorge Moreno Athletic Bilbao Actif 125 / 137 40% 2 22.02.2028 -
Jorthy Mokio ADO Den Haag Actif 121 / 139 40% 2 22.02.2028 -
Kieran Morgan Queens Park Rangers Actif 133 / 128 40% 3 18.02.2028 -
Mattia Puzone Siracusa Actif 109 / 106 40% 1 18.02.2028 -
Emil Ceïde Bodo/Glimt Refusé 123 / 124 66% 1 14.02.2028 Refuser
Ramadan Ashour Sporting Cristal Négociation 120 / 120 67% 1 14.02.2028 Approuver
Andraž Šporar KV Kortrijk Négociation 119 / 119 66% 1 14.02.2028 Approuver
Josh Nichols Oldham Athletic Actif 117 / 124 40% 6 12.02.2028 -
Josh Acheampong Everton Actif 148 / 154 40% 5 12.02.2028 -
Harrison Armstrong Everton Actif 128 / 136 40% 4 12.02.2028 -
Thulani Manyama SuperSport United Actif 123 / 111 40% 6 07.02.2028 -
Matias Siltanen Malmo FF Actif 126 / 133 40% 4 10.01.2028 -
Francisco Machis Llaneros Actif 90 / 94 40% 1 10.01.2028 -
Honest Ahanor Atalanta Actif 143 / 142 40% 1 07.01.2028 -
Vinícius Lira São Paulo Actif 119 / 120 40% 2 05.01.2028 -
Christos Mouzakitis Hull City Actif 142 / 141 40% 5 04.01.2028 -
Sebastián Ramírez Aguilas Doradas Actif 113 / 111 40% 2 04.01.2028 -
Josh King Newcastle United Actif 132 / 141 40% 6 03.01.2028 -
Teboho Mokoena Black Aces Actif 97 / 94 40% 1 03.01.2028 -
Caleb Yirenkyi Coventry City Actif 142 / 138 40% 6 02.01.2028 -
Trey Nyoni Rotherham United Actif 149 / 143 40% 6 31.12.2027 -
Matvey Bardachev Zenit Actif 116 / 120 40% 1 31.12.2027 -
Riquelme Thompson-Jones Accrington Stanley Actif 100 / 114 40% 3 28.12.2027 -
Stephen Mfuni Manchester City Actif 136 / 132 40% 1 24.12.2027 -
Luka Vušković Tottenham Actif 136 / 153 40% 5 23.12.2027 -
Giovanni Leoni Lincoln City Actif 130 / 145 40% 2 22.12.2027 -
Andrey Ivlev Nizhniy Novgorod Actif 125 / 118 40% 1 20.12.2027 -
Ayden Heaven Portsmouth Actif 148 / 153 40% 6 18.12.2027 -
Lucas Bergvall Tottenham Actif 137 / 156 40% 4 17.12.2027 -
Callum Olusesi Tottenham Actif 114 / 125 40% 3 16.12.2027 -
Jamie Wähling Hibernians Actif 100 / 94 40% 1 13.12.2027 -
Ronan Kpakio AC Milan Actif 113 / 135 40% 2 12.12.2027 -
Ivan Giraldo Valencia Actif 132 / 138 40% 2 11.12.2027 -
Agustín De la Cuesta Racing Actif 117 / 113 40% 3 09.12.2027 -
Francis Gomez Cardiff City Actif 111 / 113 40% 2 08.12.2027 -
Joel Ezra Enyimba Actif 96 / 105 40% 3 07.12.2027 -
Rasmus Nehrman Gefle Actif 66 / 89 40% 1 07.12.2027 -
Marco Morigi Caracas Actif 91 / 100 40% 2 11.11.2027 -
Malick Yalcouyé Brighton Actif 132 / 137 40% 2 08.11.2027 -
Ivan Borges Defensores Actif 75 / 89 40% 1 07.11.2027 -
Ezra Mayers West Ham United Actif 112 / 133 40% 1 03.11.2027 -
Godwin Oham Warri Wolves Actif 78 / 96 40% 2 28.10.2027 -
Juan Diego Perdomo Depor Actif 80 / 86 40% 2 24.10.2027 -
Edvard Pettersen Sandefjord Actif 93 / 111 40% 1 21.10.2027 -
Tiago Gordillo San Miguel Actif 89 / 101 40% 1 11.10.2027 -
Matthew Litherland Harrogate Town Actif 100 / 125 40% 2 07.10.2027 -
Nikolay Sotnikov Arsenal Dzerzhinsk Actif 74 / 90 40% 2 06.10.2027 -
Colin Guske Orlando City Actif 93 / 100 40% 1 05.10.2027 -
Victor Hernandez Santa Fe Actif 130 / 124 40% 1 15.09.2027 -
Mpho Khethang FC Diarra Actif 81 / 87 40% 1 13.09.2027 -
Jacob Wright Norwich City Actif 135 / 136 40% 1 12.09.2027 -
Olaniyi Saheed Kwara United Actif 110 / 96 40% 1 12.09.2027 -
Isaías Silva Miramar Misiones Actif 72 / 93 40% 1 06.09.2027 -
Esteban de Lima Tacuarembo Actif 90 / 102 40% 1 06.09.2027 -
Tyrese Spicer Orlando City Actif 104 / 99 58% 1 19.07.2027 -
Johannes Eggestein Orlando City Refusé 125 / 125 68% 1 08.07.2027 Refuser
Oleh Ocheretko FC Dallas Refusé 129 / 131 67% 1 08.07.2027 Refuser
Ishmael Addo Heart of Lions Actif 76 / 99 40% 4 06.07.2027 -
Calum Agius Crewe Alexandra Actif 97 / 92 40% 1 06.07.2027 -
Germán Barbas Burgos Actif 96 / 114 75% 4 04.07.2027 Observer
Riley Owen Stevenage Actif 96 / 103 40% 2 04.07.2027 -
Othmane Maamma Watford Actif 136 / 131 40% 5 03.07.2027 -
Lander Astiazarán Real Sociedad Actif 115 / 123 40% 2 03.07.2027 -
Oscar Schwartau Norwich City Actif 114 / 126 40% 6 02.07.2027 -
Sindre Walle Egeli Udinese Actif 121 / 142 40% 3 02.07.2027 -
Araphat Mohammed Ashanti Gold Actif 101 / 106 40% 2 01.07.2027 -
Zane Albarus Shrewsbury Town Actif 98 / 111 40% 2 01.07.2027 -
Leo Castledine Middlesbrough Actif 116 / 126 40% 2 29.06.2027 -
Nana Nuhu WAFA Actif 77 / 84 40% 2 29.06.2027 -
Josh Davidson Milton Keynes Dons Actif 81 / 96 40% 1 28.06.2027 -
Gladson Adjei WAFA Actif 82 / 82 40% 2 27.06.2027 -
Assane Diao Como Actif 156 / 157 40% 10 26.06.2027 -
Mustapha Umar Kano Pillars Actif 99 / 93 40% 1 18.06.2027 -
Ryan Oné Sheffield United Actif 102 / 129 40% 4 16.06.2027 -
Abubakar Garba Nasarawa United Actif 97 / 93 40% 1 16.06.2027 -
Daniel Awuni Aduana Stars Actif 109 / 102 40% 1 13.06.2027 -
Gomolemo Kekana Maritzburg United Actif 93 / 111 40% 1 13.06.2027 -
Mohamadou Kanté Crawley Town Actif 104 / 126 40% 2 11.06.2027 -
Mateus Mané Burnley Actif 146 / 142 40% 1 09.06.2027 -
Maren Kefas Plateau United Actif 101 / 104 40% 2 07.06.2027 -
Bazoumana Touré Newcastle United Actif 145 / 135 40% 1 03.06.2027 -
Bennet Mokoena Ajax Cape Town Actif 111 / 116 40% 2 01.06.2027 -
Ethan Williams Peterborough United Actif 118 / 113 40% 1 01.06.2027 -
Luke Baartman Ajax Cape Town Actif 98 / 111 40% 2 27.05.2027 -
Romelle Donovan Brentford Actif 123 / 133 40% 2 23.05.2027 -
Bade Aluko Leicester City Actif 119 / 129 40% 1 21.05.2027 -
Kwandile Gumemde US Bougouni Actif 65 / 88 40% 1 17.05.2027 -
Jesús Rodríguez Como Actif 149 / 143 40% 1 16.05.2027 -
Salvador Blopá Sporting CP Actif 109 / 113 40% 3 12.05.2027 -
Kirill Glebov CSKA Moscow Actif 125 / 139 40% 1 12.05.2027 -
Edwin Asamoah Berekum Chelsea Actif 97 / 79 40% 3 09.05.2027 -
Monty Batlhabane Polokwane City Actif 84 / 108 40% 1 30.03.2027 -
Morris Duggan Minnesota United FC Actif 98 / 102 55% 1 01.03.2027 -
Elijah Adebayo Luton Town Actif 136 / 127 40% 1 10.02.2027 -
João Félix Dinamo Moscow Actif 162 / 163 40% 3 06.02.2027 -
Patrick Cutrone Monza Actif 126 / 126 40% 1 06.02.2027 -
Dardan Shabanhaxhaj Rubin Actif 110 / 108 40% 1 05.02.2027 -
Rivaldo Mkhize Black Aces Actif 69 / 90 40% 1 03.02.2027 -
George Hoddle Cambridge United Actif 100 / 84 40% 1 03.02.2027 -
Gady Beyuku Blackburn Rovers Actif 105 / 111 40% 1 01.02.2027 -
David Romero Parma Actif 118 / 115 40% 1 29.01.2027 -
Simphiwe Selepe Orlando Pirates Actif 106 / 112 40% 1 28.01.2027 -
Kwadwo Duah Ludogorets Actif 125 / 128 40% 1 27.01.2027 -
Thalente Mbatha Orlando Pirates Actif 120 / 119 40% 3 25.01.2027 -
Diego León Manchester United Actif 90 / 108 40% 2 23.01.2027 -
Bongani Jali Free State Stars Actif 90 / 111 40% 1 22.01.2027 -
Matvey Kislyak CSKA Moscow Actif 120 / 130 40% 1 22.01.2027 -
Gianluca Scamacca Atalanta Actif 148 / 145 40% 1 20.01.2027 -
Evidence Makgopa Orlando Pirates Actif 106 / 113 40% 1 19.01.2027 -
Nicolò Zaniolo Udinese Actif 132 / 136 40% 1 17.01.2027 -
Arthur Gomes Dinamo Moscow Actif 109 / 120 40% 1 17.01.2027 -
Oleksii Hutsuliak Polissia Actif 143 / 116 40% 1 16.01.2027 -
Martin Sekulić Ural Actif 111 / 119 40% 1 15.01.2027 -
Armstrong Oko-Flex Levski Actif 120 / 132 40% 1 13.01.2027 -
Matteo Rover Reggiana Actif 108 / 113 40% 1 13.01.2027 -
Mustapha Sangaré Levski Actif 107 / 117 40% 1 12.01.2027 -
Oswin Appollis Orlando Pirates Actif 123 / 128 40% 3 11.01.2027 -
Nkosingiphile Ngcobo Kaizer Chiefs Actif 118 / 113 40% 1 10.01.2027 -
Gonzalo Gamarra Floriana Actif 100 / 96 40% 1 10.01.2027 -
Marcelo Allende Mamelodi Sundowns Actif 125 / 136 40% 4 08.01.2027 -
Talles Magno New York City Actif 134 / 128 40% 5 06.01.2027 -
Bradley Zwane SuperSport United Actif 103 / 112 40% 3 06.01.2027 -
Erick Dolly Black Aces Actif 98 / 117 40% 1 06.01.2027 -
Mikhail Ignatov Sochi Actif 119 / 126 40% 1 04.01.2027 -
Thabang Matuludi Polokwane City Actif 97 / 111 40% 3 01.01.2027 -
Reda Khadra Qarabag Actif 147 / 141 40% 1 31.12.2026 -
Juan Bezerra Zamalek Actif 124 / 110 40% 1 29.12.2026 -
Wandile Duba ASO Chlef Actif 115 / 93 40% 1 29.12.2026 -
Yahaya Ibrahim Plateau United Actif 80 / 100 40% 2 28.12.2026 -
Cheveyo Tsawa Club Brugge Actif 118 / 117 40% 2 26.12.2026 -
Khama Mokoena Free State Stars Actif 91 / 94 40% 2 26.12.2026 -
Vyacheslav Grulev Nizhniy Novgorod Actif 116 / 115 40% 1 26.12.2026 -
Matej Trusa DAC Dunajska Streda Actif 120 / 109 40% 1 26.12.2026 -
Berna CSKA 1948 Actif 114 / 116 40% 1 22.12.2026 -
Chico Banza Zamalek Actif 108 / 109 40% 1 20.12.2026 -
Morgan Guilavogui Real Salt Lake Refusé 127 / 127 40% 1 18.12.2026 Plus d'infos
Petar Musa FC Dallas Actif 146 / 135 40% 1 17.12.2026 -
Mathys Tel Tottenham Actif 147 / 140 40% 2 15.12.2026 -
Suleiman Camara Slovan Bratislava Actif 103 / 118 40% 1 05.12.2026 -
Yeangel Montero Naxxar Lions Actif 106 / 90 40% 2 04.12.2026 -
Thulani Mabaso Platinum Stars Actif 86 / 110 40% 2 29.11.2026 -
Malebogo Modise Polokwane City Actif 91 / 94 40% 1 27.11.2026 -
Daniel Kyerewaa Reading Actif 102 / 115 40% 1 22.11.2026 -
Brooklyn Poggenpoel Maritzburg United Actif 90 / 112 40% 1 21.11.2026 -
Bongani Zungu Ajax Cape Town Actif 130 / 114 40% 3 19.11.2026 -
Leif Davis Ipswich Town Actif 148 / 126 40% 2 16.11.2026 -
Ronaldo Maarman University of Pretoria Actif 115 / 97 40% 2 15.11.2026 -
Goodman Mosele Chippa United Actif 112 / 109 40% 1 10.11.2026 -
Thabiso Monyane Kaizer Chiefs Actif 112 / 94 40% 1 08.11.2026 -
Lebogang Manyama SuperSport United Actif 122 / 107 40% 1 06.11.2026 -
Olalekan Adeleke Remo Stars Actif 73 / 100 40% 2 04.11.2026 -
Cemran Dansin Orlando Pirates Actif 121 / 127 40% 2 04.11.2026 -
Jens Petter Hauge Bodo/Glimt Actif 130 / 145 40% 1 04.11.2026 -
Mandla Kekana Ajax Cape Town Actif 127 / 120 40% 1 04.11.2026 -
Antonio Galeano Remo Stars Actif 117 / 135 40% 1 23.10.2026 -
Bénie Traoré New York City Actif 129 / 121 40% 1 22.10.2026 -
Jesus Ferreira Seattle Sounders Actif 116 / 126 40% 1 19.10.2026 -
Tadeo Allende Inter Miami CF Actif 110 / 127 40% 2 18.10.2026 -
Diego Luna Real Salt Lake Actif 117 / 118 40% 1 16.10.2026 -
Marco Pašalić Orlando City Actif 116 / 129 40% 1 13.10.2026 -
Philippe Ndinga Philadelphia Union Actif 119 / 112 40% 1 13.10.2026 -
Joe Johnson Luton Town Actif 93 / 95 40% 1 11.10.2026 -
Gabriel Lekan Kun Khalifat Actif 104 / 95 40% 1 10.10.2026 -
Emmanuel Mathias Ikorodu City Actif 83 / 103 40% 1 10.10.2026 -
Paul Samson Plateau United Actif 119 / 95 40% 1 08.10.2026 -
Law McCabe Middlesbrough Actif 114 / 117 40% 1 11.09.2026 -
Chibueze Oputa Rangers International Actif 105 / 91 40% 1 09.09.2026 -
Lenny Agbaire Rotherham United Actif 94 / 100 40% 1 08.09.2026 -
Timo Werner San Jose Earthquakes Actif 127 / 127 40% 1 01.08.2026 -